sensor_id;sensor_type;location;lat;lon;timestamp;temperature;humidity
64888;DHT22;51386;53.082;8.816;2022-08-05T00:01:12;22.90;70.50
64888;DHT22;51386;53.082;8.816;2022-08-05T00:03:58;22.90;70.10
64888;DHT22;51386;53.082;8.816;2022-08-05T00:06:27;22.90;70.80
64888;DHT22;51386;53.082;8.816;2022-08-05T00:09:17;22.90;71.20
64888;DHT22;51386;53.082;8.816;2022-08-05T00:12:05;23.00;70.00
64888;DHT22;51386;53.082;8.816;2022-08-05T00:14:48;23.00;69.40
64888;DHT22;51386;53.082;8.816;2022-08-05T00:17:36;23.00;68.90
64888;DHT22;51386;53.082;8.816;2022-08-05T00:20:26;23.00;68.80
64888;DHT22;51386;53.082;8.816;2022-08-05T00:23:06;23.00;69.20
64888;DHT22;51386;53.082;8.816;2022-08-05T00:25:38;23.10;69.90
64888;DHT22;51386;53.082;8.816;2022-08-05T00:28:30;23.10;69.70
64888;DHT22;51386;53.082;8.816;2022-08-05T00:31:11;23.20;69.60
64888;DHT22;51386;53.082;8.816;2022-08-05T00:33:44;23.20;69.30
64888;DHT22;51386;53.082;8.816;2022-08-05T00:36:32;23.20;69.20
64888;DHT22;51386;53.082;8.816;2022-08-05T00:39:20;23.30;68.40
64888;DHT22;51386;53.082;8.816;2022-08-05T00:41:51;23.30;68.10
64888;DHT22;51386;53.082;8.816;2022-08-05T00:44:40;23.30;67.60
64888;DHT22;51386;53.082;8.816;2022-08-05T00:47:07;23.30;67.00
64888;DHT22;51386;53.082;8.816;2022-08-05T00:49:37;23.20;67.00
64888;DHT22;51386;53.082;8.816;2022-08-05T00:52:23;23.20;66.90
64888;DHT22;51386;53.082;8.816;2022-08-05T00:54:56;23.10;66.80
64888;DHT22;51386;53.082;8.816;2022-08-05T00:57:24;23.10;66.90
64888;DHT22;51386;53.082;8.816;2022-08-05T01:00:12;23.00;67.00
64888;DHT22;51386;53.082;8.816;2022-08-05T01:02:42;23.00;67.40
64888;DHT22;51386;53.082;8.816;2022-08-05T01:05:10;23.00;67.50
64888;DHT22;51386;53.082;8.816;2022-08-05T01:07:39;23.00;68.20
64888;DHT22;51386;53.082;8.816;2022-08-05T01:10:34;23.00;68.30
64888;DHT22;51386;53.082;8.816;2022-08-05T01:13:22;23.00;68.50
64888;DHT22;51386;53.082;8.816;2022-08-05T01:16:20;23.00;68.40
64888;DHT22;51386;53.082;8.816;2022-08-05T01:18:56;23.00;68.40
64888;DHT22;51386;53.082;8.816;2022-08-05T01:21:52;22.90;68.40
64888;DHT22;51386;53.082;8.816;2022-08-05T01:24:50;22.90;69.70
64888;DHT22;51386;53.082;8.816;2022-08-05T01:28:03;22.90;70.30
64888;DHT22;51386;53.082;8.816;2022-08-05T01:30:46;22.90;70.90
64888;DHT22;51386;53.082;8.816;2022-08-05T01:33:23;22.80;70.80
64888;DHT22;51386;53.082;8.816;2022-08-05T01:36:07;22.80;71.50
64888;DHT22;51386;53.082;8.816;2022-08-05T01:38:43;22.70;71.20
64888;DHT22;51386;53.082;8.816;2022-08-05T01:41:17;22.60;71.30
64888;DHT22;51386;53.082;8.816;2022-08-05T01:43:53;22.60;72.00
64888;DHT22;51386;53.082;8.816;2022-08-05T01:46:24;22.70;71.90
64888;DHT22;51386;53.082;8.816;2022-08-05T01:49:15;22.60;71.50
64888;DHT22;51386;53.082;8.816;2022-08-05T01:51:54;22.60;71.90
64888;DHT22;51386;53.082;8.816;2022-08-05T01:54:31;22.60;71.90
64888;DHT22;51386;53.082;8.816;2022-08-05T01:57:13;22.60;72.30
64888;DHT22;51386;53.082;8.816;2022-08-05T02:00:09;22.60;72.70
64888;DHT22;51386;53.082;8.816;2022-08-05T02:02:42;22.60;72.00
64888;DHT22;51386;53.082;8.816;2022-08-05T02:05:23;22.50;72.30
64888;DHT22;51386;53.082;8.816;2022-08-05T02:07:54;22.50;72.10
64888;DHT22;51386;53.082;8.816;2022-08-05T02:10:31;22.50;71.90
64888;DHT22;51386;53.082;8.816;2022-08-05T02:13:13;22.40;71.60
64888;DHT22;51386;53.082;8.816;2022-08-05T02:15:49;22.40;72.10
64888;DHT22;51386;53.082;8.816;2022-08-05T02:18:24;22.30;72.10
64888;DHT22;51386;53.082;8.816;2022-08-05T02:21:05;22.20;72.70
64888;DHT22;51386;53.082;8.816;2022-08-05T02:23:43;22.10;73.00
64888;DHT22;51386;53.082;8.816;2022-08-05T02:26:19;22.00;73.70
64888;DHT22;51386;53.082;8.816;2022-08-05T02:28:54;22.00;73.80
64888;DHT22;51386;53.082;8.816;2022-08-05T02:31:29;21.90;73.70
64888;DHT22;51386;53.082;8.816;2022-08-05T02:34:04;21.90;74.10
64888;DHT22;51386;53.082;8.816;2022-08-05T02:36:37;21.80;74.30
64888;DHT22;51386;53.082;8.816;2022-08-05T02:39:08;21.80;75.50
64888;DHT22;51386;53.082;8.816;2022-08-05T02:41:40;21.80;74.50
64888;DHT22;51386;53.082;8.816;2022-08-05T02:44:29;21.70;74.60
64888;DHT22;51386;53.082;8.816;2022-08-05T02:46:59;21.70;74.80
64888;DHT22;51386;53.082;8.816;2022-08-05T02:49:33;21.70;74.80
64888;DHT22;51386;53.082;8.816;2022-08-05T02:52:10;21.70;74.90
64888;DHT22;51386;53.082;8.816;2022-08-05T02:54:57;21.70;74.90
64888;DHT22;51386;53.082;8.816;2022-08-05T02:57:31;21.70;74.90
64888;DHT22;51386;53.082;8.816;2022-08-05T03:00:19;21.60;74.80
64888;DHT22;51386;53.082;8.816;2022-08-05T03:02:49;21.60;75.20
64888;DHT22;51386;53.082;8.816;2022-08-05T03:05:18;21.60;75.30
64888;DHT22;51386;53.082;8.816;2022-08-05T03:08:08;21.60;75.40
64888;DHT22;51386;53.082;8.816;2022-08-05T03:10:37;21.50;75.80
64888;DHT22;51386;53.082;8.816;2022-08-05T03:13:27;21.50;76.00
64888;DHT22;51386;53.082;8.816;2022-08-05T03:16:14;21.50;76.10
64888;DHT22;51386;53.082;8.816;2022-08-05T03:18:47;21.50;76.20
64888;DHT22;51386;53.082;8.816;2022-08-05T03:21:14;21.50;76.20
64888;DHT22;51386;53.082;8.816;2022-08-05T03:23:42;21.40;76.20
64888;DHT22;51386;53.082;8.816;2022-08-05T03:26:11;21.50;76.40
64888;DHT22;51386;53.082;8.816;2022-08-05T03:28:58;21.40;76.40
64888;DHT22;51386;53.082;8.816;2022-08-05T03:31:25;21.40;76.70
64888;DHT22;51386;53.082;8.816;2022-08-05T03:34:15;21.40;77.00
64888;DHT22;51386;53.082;8.816;2022-08-05T03:36:42;21.50;76.90
64888;DHT22;51386;53.082;8.816;2022-08-05T03:39:10;21.50;77.10
64888;DHT22;51386;53.082;8.816;2022-08-05T03:41:46;21.50;76.90
64888;DHT22;51386;53.082;8.816;2022-08-05T03:44:18;21.50;76.80
64888;DHT22;51386;53.082;8.816;2022-08-05T03:46:46;21.50;76.90
64888;DHT22;51386;53.082;8.816;2022-08-05T03:49:15;21.50;76.90
64888;DHT22;51386;53.082;8.816;2022-08-05T03:51:50;21.50;76.70
64888;DHT22;51386;53.082;8.816;2022-08-05T03:54:48;21.50;76.90
64888;DHT22;51386;53.082;8.816;2022-08-05T03:57:39;21.50;76.70
64888;DHT22;51386;53.082;8.816;2022-08-05T04:00:12;21.50;76.70
64888;DHT22;51386;53.082;8.816;2022-08-05T04:02:45;21.50;76.80
64888;DHT22;51386;53.082;8.816;2022-08-05T04:05:28;21.50;76.70
64888;DHT22;51386;53.082;8.816;2022-08-05T04:08:01;21.50;76.90
64888;DHT22;51386;53.082;8.816;2022-08-05T04:10:41;21.50;76.90
64888;DHT22;51386;53.082;8.816;2022-08-05T04:13:11;21.50;77.20
64888;DHT22;51386;53.082;8.816;2022-08-05T04:15:38;21.40;77.30
64888;DHT22;51386;53.082;8.816;2022-08-05T04:18:27;21.40;77.20
64888;DHT22;51386;53.082;8.816;2022-08-05T04:20:57;21.40;77.30
64888;DHT22;51386;53.082;8.816;2022-08-05T04:23:26;21.40;77.30
64888;DHT22;51386;53.082;8.816;2022-08-05T04:26:15;21.40;77.70
64888;DHT22;51386;53.082;8.816;2022-08-05T04:28:43;21.40;77.60
64888;DHT22;51386;53.082;8.816;2022-08-05T04:31:17;21.50;77.80
64888;DHT22;51386;53.082;8.816;2022-08-05T04:33:45;21.50;77.40
64888;DHT22;51386;53.082;8.816;2022-08-05T04:36:34;21.60;77.10
64888;DHT22;51386;53.082;8.816;2022-08-05T04:39:15;21.60;76.80
64888;DHT22;51386;53.082;8.816;2022-08-05T04:41:44;21.60;78.00
64888;DHT22;51386;53.082;8.816;2022-08-05T04:44:14;21.60;77.20
64888;DHT22;51386;53.082;8.816;2022-08-05T04:46:50;21.70;76.90
64888;DHT22;51386;53.082;8.816;2022-08-05T04:49:18;21.70;76.70
64888;DHT22;51386;53.082;8.816;2022-08-05T04:52:05;21.80;76.60
64888;DHT22;51386;53.082;8.816;2022-08-05T04:54:33;21.80;76.60
64888;DHT22;51386;53.082;8.816;2022-08-05T04:57:01;21.80;76.50
64888;DHT22;51386;53.082;8.816;2022-08-05T04:59:28;21.80;76.40
64888;DHT22;51386;53.082;8.816;2022-08-05T05:02:06;21.80;76.40
64888;DHT22;51386;53.082;8.816;2022-08-05T05:04:54;21.80;76.30
64888;DHT22;51386;53.082;8.816;2022-08-05T05:07:29;21.90;76.20
64888;DHT22;51386;53.082;8.816;2022-08-05T05:10:01;21.90;76.40
64888;DHT22;51386;53.082;8.816;2022-08-05T05:12:32;21.90;76.10
64888;DHT22;51386;53.082;8.816;2022-08-05T05:15:04;21.90;75.80
64888;DHT22;51386;53.082;8.816;2022-08-05T05:17:37;21.90;75.70
64888;DHT22;51386;53.082;8.816;2022-08-05T05:20:23;21.90;75.80
64888;DHT22;51386;53.082;8.816;2022-08-05T05:22:56;21.90;75.70
64888;DHT22;51386;53.082;8.816;2022-08-05T05:25:24;21.90;75.80
64888;DHT22;51386;53.082;8.816;2022-08-05T05:28:07;21.80;76.00
64888;DHT22;51386;53.082;8.816;2022-08-05T05:30:35;21.80;76.00
64888;DHT22;51386;53.082;8.816;2022-08-05T05:33:04;21.80;76.10
64888;DHT22;51386;53.082;8.816;2022-08-05T05:35:43;21.80;76.50
64888;DHT22;51386;53.082;8.816;2022-08-05T05:38:13;21.80;76.60
64888;DHT22;51386;53.082;8.816;2022-08-05T05:40:53;21.90;76.60
64888;DHT22;51386;53.082;8.816;2022-08-05T05:43:21;22.00;76.70
64888;DHT22;51386;53.082;8.816;2022-08-05T05:46:09;22.10;76.70
64888;DHT22;51386;53.082;8.816;2022-08-05T05:48:43;22.20;76.70
64888;DHT22;51386;53.082;8.816;2022-08-05T05:51:18;22.30;76.20
64888;DHT22;51386;53.082;8.816;2022-08-05T05:53:49;22.30;75.70
64888;DHT22;51386;53.082;8.816;2022-08-05T05:56:27;22.40;75.60
64888;DHT22;51386;53.082;8.816;2022-08-05T05:58:59;22.40;75.30
64888;DHT22;51386;53.082;8.816;2022-08-05T06:01:30;22.40;75.30
64888;DHT22;51386;53.082;8.816;2022-08-05T06:04:05;22.40;75.60
64888;DHT22;51386;53.082;8.816;2022-08-05T06:06:33;22.40;75.70
64888;DHT22;51386;53.082;8.816;2022-08-05T06:09:02;22.50;75.10
64888;DHT22;51386;53.082;8.816;2022-08-05T06:11:33;22.50;74.60
64888;DHT22;51386;53.082;8.816;2022-08-05T06:14:05;22.50;74.60
64888;DHT22;51386;53.082;8.816;2022-08-05T06:16:32;22.50;74.40
64888;DHT22;51386;53.082;8.816;2022-08-05T06:19:04;22.50;74.30
64888;DHT22;51386;53.082;8.816;2022-08-05T06:21:35;22.40;74.20
64888;DHT22;51386;53.082;8.816;2022-08-05T06:24:08;22.40;74.30
64888;DHT22;51386;53.082;8.816;2022-08-05T06:26:40;22.40;74.20
64888;DHT22;51386;53.082;8.816;2022-08-05T06:29:18;22.40;74.60
64888;DHT22;51386;53.082;8.816;2022-08-05T06:32:06;22.40;74.80
64888;DHT22;51386;53.082;8.816;2022-08-05T06:34:51;22.40;75.10
64888;DHT22;51386;53.082;8.816;2022-08-05T06:37:23;22.50;75.10
64888;DHT22;51386;53.082;8.816;2022-08-05T06:40:14;22.50;75.00
64888;DHT22;51386;53.082;8.816;2022-08-05T06:42:48;22.50;75.10
64888;DHT22;51386;53.082;8.816;2022-08-05T06:45:19;22.50;75.50
64888;DHT22;51386;53.082;8.816;2022-08-05T06:48:07;22.50;75.70
64888;DHT22;51386;53.082;8.816;2022-08-05T06:50:55;22.50;75.90
64888;DHT22;51386;53.082;8.816;2022-08-05T06:53:23;22.50;76.10
64888;DHT22;51386;53.082;8.816;2022-08-05T06:55:56;22.50;76.60
64888;DHT22;51386;53.082;8.816;2022-08-05T06:58:25;22.50;76.20
64888;DHT22;51386;53.082;8.816;2022-08-05T07:01:03;22.50;76.00
64888;DHT22;51386;53.082;8.816;2022-08-05T07:03:32;22.60;76.10
64888;DHT22;51386;53.082;8.816;2022-08-05T07:06:01;22.60;75.80
64888;DHT22;51386;53.082;8.816;2022-08-05T07:08:40;22.60;75.90
64888;DHT22;51386;53.082;8.816;2022-08-05T07:11:11;22.60;76.40
64888;DHT22;51386;53.082;8.816;2022-08-05T07:13:41;22.60;75.60
64888;DHT22;51386;53.082;8.816;2022-08-05T07:16:28;22.60;75.40
64888;DHT22;51386;53.082;8.816;2022-08-05T07:19:34;22.50;75.50
64888;DHT22;51386;53.082;8.816;2022-08-05T07:22:22;22.50;75.50
64888;DHT22;51386;53.082;8.816;2022-08-05T07:24:57;22.50;75.50
64888;DHT22;51386;53.082;8.816;2022-08-05T07:27:26;22.40;75.50
64888;DHT22;51386;53.082;8.816;2022-08-05T07:30:14;22.40;76.00
64888;DHT22;51386;53.082;8.816;2022-08-05T07:32:54;22.40;76.40
64888;DHT22;51386;53.082;8.816;2022-08-05T07:35:23;22.40;75.70
64888;DHT22;51386;53.082;8.816;2022-08-05T07:38:11;22.40;76.20
64888;DHT22;51386;53.082;8.816;2022-08-05T07:40:59;22.40;75.80
64888;DHT22;51386;53.082;8.816;2022-08-05T07:43:48;22.40;76.10
64888;DHT22;51386;53.082;8.816;2022-08-05T07:46:16;22.40;76.30
64888;DHT22;51386;53.082;8.816;2022-08-05T07:48:52;22.40;76.10
64888;DHT22;51386;53.082;8.816;2022-08-05T07:51:31;22.30;76.30
64888;DHT22;51386;53.082;8.816;2022-08-05T07:54:07;22.30;77.00
64888;DHT22;51386;53.082;8.816;2022-08-05T07:56:38;22.30;76.60
64888;DHT22;51386;53.082;8.816;2022-08-05T07:59:27;22.30;77.40
64888;DHT22;51386;53.082;8.816;2022-08-05T08:02:07;22.30;77.10
64888;DHT22;51386;53.082;8.816;2022-08-05T08:04:44;22.30;77.50
64888;DHT22;51386;53.082;8.816;2022-08-05T08:07:13;22.30;77.50
64888;DHT22;51386;53.082;8.816;2022-08-05T08:09:41;22.40;77.40
64888;DHT22;51386;53.082;8.816;2022-08-05T08:12:09;22.40;77.40
64888;DHT22;51386;53.082;8.816;2022-08-05T08:15:04;22.40;77.40
64888;DHT22;51386;53.082;8.816;2022-08-05T08:17:40;22.40;77.50
64888;DHT22;51386;53.082;8.816;2022-08-05T08:20:16;22.40;77.40
64888;DHT22;51386;53.082;8.816;2022-08-05T08:23:04;22.40;77.50
64888;DHT22;51386;53.082;8.816;2022-08-05T08:25:53;22.40;78.20
64888;DHT22;51386;53.082;8.816;2022-08-05T08:28:26;22.30;77.80
64888;DHT22;51386;53.082;8.816;2022-08-05T08:31:09;22.30;78.90
64888;DHT22;51386;53.082;8.816;2022-08-05T08:33:43;22.30;78.40
64888;DHT22;51386;53.082;8.816;2022-08-05T08:36:19;22.30;78.30
64888;DHT22;51386;53.082;8.816;2022-08-05T08:39:07;22.30;78.60
64888;DHT22;51386;53.082;8.816;2022-08-05T08:41:43;22.30;78.70
64888;DHT22;51386;53.082;8.816;2022-08-05T08:44:29;22.30;78.70
64888;DHT22;51386;53.082;8.816;2022-08-05T08:47:21;22.30;80.00
64888;DHT22;51386;53.082;8.816;2022-08-05T08:50:14;22.30;79.20
64888;DHT22;51386;53.082;8.816;2022-08-05T08:53:06;22.30;79.50
64888;DHT22;51386;53.082;8.816;2022-08-05T08:55:39;22.40;79.20
64888;DHT22;51386;53.082;8.816;2022-08-05T08:58:27;22.40;79.10
64888;DHT22;51386;53.082;8.816;2022-08-05T09:01:16;22.40;79.60
64888;DHT22;51386;53.082;8.816;2022-08-05T09:03:48;22.40;79.90
64888;DHT22;51386;53.082;8.816;2022-08-05T09:06:27;22.40;79.30
64888;DHT22;51386;53.082;8.816;2022-08-05T09:09:02;22.40;79.00
64888;DHT22;51386;53.082;8.816;2022-08-05T09:11:32;22.40;79.20
64888;DHT22;51386;53.082;8.816;2022-08-05T09:14:20;22.30;78.80
64888;DHT22;51386;53.082;8.816;2022-08-05T09:17:10;22.30;79.60
64888;DHT22;51386;53.082;8.816;2022-08-05T09:20:04;22.30;79.70
64888;DHT22;51386;53.082;8.816;2022-08-05T09:23:01;22.30;80.40
64888;DHT22;51386;53.082;8.816;2022-08-05T09:25:36;22.30;79.30
64888;DHT22;51386;53.082;8.816;2022-08-05T09:28:25;22.30;77.40
64888;DHT22;51386;53.082;8.816;2022-08-05T09:31:02;22.30;77.00
64888;DHT22;51386;53.082;8.816;2022-08-05T09:33:51;22.30;76.80
64888;DHT22;51386;53.082;8.816;2022-08-05T09:36:37;22.30;77.30
64888;DHT22;51386;53.082;8.816;2022-08-05T09:39:23;22.40;76.70
64888;DHT22;51386;53.082;8.816;2022-08-05T09:42:12;22.40;76.20
64888;DHT22;51386;53.082;8.816;2022-08-05T09:44:54;22.40;75.60
64888;DHT22;51386;53.082;8.816;2022-08-05T09:47:29;22.40;75.30
64888;DHT22;51386;53.082;8.816;2022-08-05T09:50:19;22.40;76.30
64888;DHT22;51386;53.082;8.816;2022-08-05T09:53:07;22.40;76.40
64888;DHT22;51386;53.082;8.816;2022-08-05T09:55:53;22.40;76.60
64888;DHT22;51386;53.082;8.816;2022-08-05T09:58:35;22.40;77.10
64888;DHT22;51386;53.082;8.816;2022-08-05T10:01:11;22.40;77.10
64888;DHT22;51386;53.082;8.816;2022-08-05T10:03:59;22.40;77.80
64888;DHT22;51386;53.082;8.816;2022-08-05T10:06:29;22.40;78.00
64888;DHT22;51386;53.082;8.816;2022-08-05T10:09:11;22.50;78.70
64888;DHT22;51386;53.082;8.816;2022-08-05T10:12:05;22.50;78.70
64888;DHT22;51386;53.082;8.816;2022-08-05T10:15:12;22.50;77.90
64888;DHT22;51386;53.082;8.816;2022-08-05T10:17:44;22.50;77.50
64888;DHT22;51386;53.082;8.816;2022-08-05T10:20:30;22.40;75.20
64888;DHT22;51386;53.082;8.816;2022-08-05T10:22:59;22.40;76.20
64888;DHT22;51386;53.082;8.816;2022-08-05T10:25:31;22.30;76.20
64888;DHT22;51386;53.082;8.816;2022-08-05T10:28:03;22.30;75.90
64888;DHT22;51386;53.082;8.816;2022-08-05T10:30:45;22.30;76.20
64888;DHT22;51386;53.082;8.816;2022-08-05T10:33:33;22.30;76.80
64888;DHT22;51386;53.082;8.816;2022-08-05T10:36:03;22.30;77.20
64888;DHT22;51386;53.082;8.816;2022-08-05T10:38:34;22.30;77.80
64888;DHT22;51386;53.082;8.816;2022-08-05T10:41:10;22.30;77.90
64888;DHT22;51386;53.082;8.816;2022-08-05T10:43:53;22.30;77.20
64888;DHT22;51386;53.082;8.816;2022-08-05T10:46:45;22.30;77.30
64888;DHT22;51386;53.082;8.816;2022-08-05T10:49:17;22.30;78.00
64888;DHT22;51386;53.082;8.816;2022-08-05T10:51:55;22.30;78.00
64888;DHT22;51386;53.082;8.816;2022-08-05T10:54:48;22.40;78.50
64888;DHT22;51386;53.082;8.816;2022-08-05T10:57:31;22.40;77.20
64888;DHT22;51386;53.082;8.816;2022-08-05T11:00:10;22.40;77.20
64888;DHT22;51386;53.082;8.816;2022-08-05T11:03:08;22.40;77.20
64888;DHT22;51386;53.082;8.816;2022-08-05T11:06:19;22.40;76.90
64888;DHT22;51386;53.082;8.816;2022-08-05T11:09:16;22.40;77.10
64888;DHT22;51386;53.082;8.816;2022-08-05T11:12:43;22.40;75.90
64888;DHT22;51386;53.082;8.816;2022-08-05T11:15:23;22.50;76.10
64888;DHT22;51386;53.082;8.816;2022-08-05T11:18:26;22.50;76.40
64888;DHT22;51386;53.082;8.816;2022-08-05T11:20:58;22.60;76.40
64888;DHT22;51386;53.082;8.816;2022-08-05T11:23:36;22.60;76.50
64888;DHT22;51386;53.082;8.816;2022-08-05T11:26:31;22.70;75.20
64888;DHT22;51386;53.082;8.816;2022-08-05T11:29:02;22.70;74.80
64888;DHT22;51386;53.082;8.816;2022-08-05T11:31:38;22.70;74.60
64888;DHT22;51386;53.082;8.816;2022-08-05T11:34:39;22.80;74.30
64888;DHT22;51386;53.082;8.816;2022-08-05T11:37:40;22.90;73.30
64888;DHT22;51386;53.082;8.816;2022-08-05T11:40:55;22.90;73.10
64888;DHT22;51386;53.082;8.816;2022-08-05T11:43:38;23.00;73.70
64888;DHT22;51386;53.082;8.816;2022-08-05T11:46:41;23.10;73.80
64888;DHT22;51386;53.082;8.816;2022-08-05T11:49:37;23.20;73.20
64888;DHT22;51386;53.082;8.816;2022-08-05T11:52:09;23.30;72.60
64888;DHT22;51386;53.082;8.816;2022-08-05T11:54:38;23.40;72.30
64888;DHT22;51386;53.082;8.816;2022-08-05T11:57:09;23.40;72.20
64888;DHT22;51386;53.082;8.816;2022-08-05T11:59:52;23.50;71.50
64888;DHT22;51386;53.082;8.816;2022-08-05T12:02:28;23.60;71.60
64888;DHT22;51386;53.082;8.816;2022-08-05T12:05:03;23.60;71.00
64888;DHT22;51386;53.082;8.816;2022-08-05T12:07:35;23.70;70.40
64888;DHT22;51386;53.082;8.816;2022-08-05T12:10:25;23.70;70.60
64888;DHT22;51386;53.082;8.816;2022-08-05T12:13:15;23.80;69.30
64888;DHT22;51386;53.082;8.816;2022-08-05T12:16:07;23.90;69.40
64888;DHT22;51386;53.082;8.816;2022-08-05T12:18:43;24.00;69.40
64888;DHT22;51386;53.082;8.816;2022-08-05T12:21:21;24.10;67.90
64888;DHT22;51386;53.082;8.816;2022-08-05T12:24:09;24.20;66.60
64888;DHT22;51386;53.082;8.816;2022-08-05T12:26:38;24.30;65.80
64888;DHT22;51386;53.082;8.816;2022-08-05T12:29:11;24.30;65.70
64888;DHT22;51386;53.082;8.816;2022-08-05T12:31:46;24.40;65.10
64888;DHT22;51386;53.082;8.816;2022-08-05T12:34:23;24.40;64.90
64888;DHT22;51386;53.082;8.816;2022-08-05T12:36:59;24.50;65.20
64888;DHT22;51386;53.082;8.816;2022-08-05T12:39:37;24.60;65.30
64888;DHT22;51386;53.082;8.816;2022-08-05T12:42:12;24.90;65.20
64888;DHT22;51386;53.082;8.816;2022-08-05T12:44:43;25.20;62.30
64888;DHT22;51386;53.082;8.816;2022-08-05T12:47:24;25.40;61.90
64888;DHT22;51386;53.082;8.816;2022-08-05T12:49:58;25.50;61.00
64888;DHT22;51386;53.082;8.816;2022-08-05T12:52:32;25.60;60.60
64888;DHT22;51386;53.082;8.816;2022-08-05T12:55:18;25.70;60.70
64888;DHT22;51386;53.082;8.816;2022-08-05T12:57:49;25.80;59.60
64888;DHT22;51386;53.082;8.816;2022-08-05T13:00:41;25.80;59.40
64888;DHT22;51386;53.082;8.816;2022-08-05T13:03:30;25.80;59.00
64888;DHT22;51386;53.082;8.816;2022-08-05T13:06:00;25.70;59.30
64888;DHT22;51386;53.082;8.816;2022-08-05T13:08:29;25.70;59.60
64888;DHT22;51386;53.082;8.816;2022-08-05T13:10:59;25.70;59.30
64888;DHT22;51386;53.082;8.816;2022-08-05T13:13:28;25.70;59.30
64888;DHT22;51386;53.082;8.816;2022-08-05T13:16:15;25.70;58.80
64888;DHT22;51386;53.082;8.816;2022-08-05T13:18:53;25.70;58.20
64888;DHT22;51386;53.082;8.816;2022-08-05T13:21:26;25.70;58.50
64888;DHT22;51386;53.082;8.816;2022-08-05T13:24:13;25.60;58.20
64888;DHT22;51386;53.082;8.816;2022-08-05T13:27:03;25.60;58.20
64888;DHT22;51386;53.082;8.816;2022-08-05T13:29:36;25.60;58.00
64888;DHT22;51386;53.082;8.816;2022-08-05T13:32:32;25.50;55.90
64888;DHT22;51386;53.082;8.816;2022-08-05T13:35:08;25.50;57.50
64888;DHT22;51386;53.082;8.816;2022-08-05T13:37:36;25.50;57.90
64888;DHT22;51386;53.082;8.816;2022-08-05T13:40:04;25.60;57.70
64888;DHT22;51386;53.082;8.816;2022-08-05T13:42:52;25.60;56.60
64888;DHT22;51386;53.082;8.816;2022-08-05T13:45:21;25.70;56.60
64888;DHT22;51386;53.082;8.816;2022-08-05T13:47:58;25.70;56.00
64888;DHT22;51386;53.082;8.816;2022-08-05T13:50:46;25.70;55.60
64888;DHT22;51386;53.082;8.816;2022-08-05T13:53:13;25.60;55.90
64888;DHT22;51386;53.082;8.816;2022-08-05T13:55:41;25.60;55.80
64888;DHT22;51386;53.082;8.816;2022-08-05T13:58:26;25.60;56.10
64888;DHT22;51386;53.082;8.816;2022-08-05T14:00:57;25.60;55.70
64888;DHT22;51386;53.082;8.816;2022-08-05T14:03:27;25.50;56.60
64888;DHT22;51386;53.082;8.816;2022-08-05T14:05:55;25.40;56.30
64888;DHT22;51386;53.082;8.816;2022-08-05T14:08:42;25.30;57.00
64888;DHT22;51386;53.082;8.816;2022-08-05T14:11:10;25.30;57.60
64888;DHT22;51386;53.082;8.816;2022-08-05T14:13:48;25.30;57.90
64888;DHT22;51386;53.082;8.816;2022-08-05T14:16:21;25.40;57.40
64888;DHT22;51386;53.082;8.816;2022-08-05T14:18:50;25.40;57.50
64888;DHT22;51386;53.082;8.816;2022-08-05T14:21:18;25.40;57.10
64888;DHT22;51386;53.082;8.816;2022-08-05T14:24:05;25.40;57.40
64888;DHT22;51386;53.082;8.816;2022-08-05T14:26:38;25.40;57.20
64888;DHT22;51386;53.082;8.816;2022-08-05T14:29:25;25.30;56.80
64888;DHT22;51386;53.082;8.816;2022-08-05T14:31:57;25.30;56.50
64888;DHT22;51386;53.082;8.816;2022-08-05T14:34:43;25.30;55.40
64888;DHT22;51386;53.082;8.816;2022-08-05T14:37:11;25.30;51.80
64888;DHT22;51386;53.082;8.816;2022-08-05T14:39:40;25.30;48.70
64888;DHT22;51386;53.082;8.816;2022-08-05T14:42:22;25.30;48.80
64888;DHT22;51386;53.082;8.816;2022-08-05T14:44:51;25.40;48.80
64888;DHT22;51386;53.082;8.816;2022-08-05T14:47:18;25.50;47.20
64888;DHT22;51386;53.082;8.816;2022-08-05T14:50:07;25.50;46.60
64888;DHT22;51386;53.082;8.816;2022-08-05T14:52:45;25.50;45.30
64888;DHT22;51386;53.082;8.816;2022-08-05T14:55:23;25.60;45.50
64888;DHT22;51386;53.082;8.816;2022-08-05T14:57:50;25.60;45.80
64888;DHT22;51386;53.082;8.816;2022-08-05T15:00:22;25.70;46.10
64888;DHT22;51386;53.082;8.816;2022-08-05T15:02:54;25.70;45.80
64888;DHT22;51386;53.082;8.816;2022-08-05T15:05:23;25.70;45.50
64888;DHT22;51386;53.082;8.816;2022-08-05T15:08:13;25.60;43.30
64888;DHT22;51386;53.082;8.816;2022-08-05T15:11:00;25.60;42.90
64888;DHT22;51386;53.082;8.816;2022-08-05T15:13:29;25.50;42.80
64888;DHT22;51386;53.082;8.816;2022-08-05T15:16:12;25.50;42.70
64888;DHT22;51386;53.082;8.816;2022-08-05T15:18:40;25.50;42.50
64888;DHT22;51386;53.082;8.816;2022-08-05T15:21:14;25.50;40.20
64888;DHT22;51386;53.082;8.816;2022-08-05T15:23:47;25.40;38.50
64888;DHT22;51386;53.082;8.816;2022-08-05T15:26:15;25.40;39.50
64888;DHT22;51386;53.082;8.816;2022-08-05T15:28:58;25.40;39.90
64888;DHT22;51386;53.082;8.816;2022-08-05T15:31:28;25.40;40.00
64888;DHT22;51386;53.082;8.816;2022-08-05T15:34:00;25.40;40.60
64888;DHT22;51386;53.082;8.816;2022-08-05T15:36:49;25.30;40.20
64888;DHT22;51386;53.082;8.816;2022-08-05T15:39:18;25.30;40.30
64888;DHT22;51386;53.082;8.816;2022-08-05T15:42:05;25.20;40.40
64888;DHT22;51386;53.082;8.816;2022-08-05T15:44:53;25.10;39.70
64888;DHT22;51386;53.082;8.816;2022-08-05T15:47:20;25.10;40.30
64888;DHT22;51386;53.082;8.816;2022-08-05T15:49:50;25.10;40.60
64888;DHT22;51386;53.082;8.816;2022-08-05T15:52:26;25.20;40.60
64888;DHT22;51386;53.082;8.816;2022-08-05T15:55:14;25.20;38.70
64888;DHT22;51386;53.082;8.816;2022-08-05T15:57:42;25.20;38.70
64888;DHT22;51386;53.082;8.816;2022-08-05T16:00:12;25.20;38.00
64888;DHT22;51386;53.082;8.816;2022-08-05T16:02:42;25.20;37.90
64888;DHT22;51386;53.082;8.816;2022-08-05T16:05:10;25.10;37.40
64888;DHT22;51386;53.082;8.816;2022-08-05T16:07:39;25.10;37.20
64888;DHT22;51386;53.082;8.816;2022-08-05T16:10:14;25.10;37.60
64888;DHT22;51386;53.082;8.816;2022-08-05T16:12:49;25.10;37.80
64888;DHT22;51386;53.082;8.816;2022-08-05T16:15:18;25.10;37.80
64888;DHT22;51386;53.082;8.816;2022-08-05T16:17:47;25.10;37.90
64888;DHT22;51386;53.082;8.816;2022-08-05T16:20:24;25.10;37.40
64888;DHT22;51386;53.082;8.816;2022-08-05T16:22:55;25.10;38.10
64888;DHT22;51386;53.082;8.816;2022-08-05T16:25:23;25.10;38.90
64888;DHT22;51386;53.082;8.816;2022-08-05T16:28:00;25.10;38.50
64888;DHT22;51386;53.082;8.816;2022-08-05T16:30:32;25.20;38.40
64888;DHT22;51386;53.082;8.816;2022-08-05T16:33:02;25.20;38.20
64888;DHT22;51386;53.082;8.816;2022-08-05T16:35:30;25.30;37.20
64888;DHT22;51386;53.082;8.816;2022-08-05T16:38:01;25.40;37.00
64888;DHT22;51386;53.082;8.816;2022-08-05T16:40:49;25.50;36.30